Terminal Aerodrome Forecast
Issued by NWS Duluth, MN

Home | Current Version | Previous Version | Text Only | Print | Product List | Glossary On
Versions: 1 2 3 4 5 6 7 8 9 10 11 12 13 14 15 16 17 18
849
FTUS43 KDLH 161727
TAFINL
TAF
KINL 161727Z 1618/1718 34004KT 2SM BR OVC003
     FM162100 36004KT 4SM BR VCTS OVC003CB
     FM170000 VRB03KT 3SM -SHRA BR VCTS OVC003CB
     FM170600 25004KT 4SM BR OVC008
     FM170700 25005KT P6SM VCTS OVC008CB
     FM170900 25008KT P6SM BKN008
     FM171700 26010KT P6SM BKN045=

USA.gov is the U.S. government's official web portal to all federal, state and local government web resources and services.